This is the latest recevied weather packets stored in our database for station/object K1WJY. If no packets are shown the sender has not sent any weather packets the latest 10 day(s).
| Time | Temp. | Humidity | Pressure | Rain* | Wind** | Luminosity | Snow |
|---|---|---|---|---|---|---|---|
| 1777655476 | 13.89° C | 68% | 1007.8 hPa | 0 mm | - | 298 W/m² | - |
| 1777655173 | 13.89° C | 69% | 1007.8 hPa | 0 mm | - | 215 W/m² | - |
| 1777654869 | 14.44° C | 68% | 1007.8 hPa | 0 mm | - | 270 W/m² | - |
| 1777654567 | 13.89° C | 69% | 1007.7 hPa | 0 mm | - | 223 W/m² | - |
| 1777654264 | 13.89° C | 70% | 1007.8 hPa | 0 mm | - | 299 W/m² | - |
| 1777653962 | 14.44° C | 68% | 1007.7 hPa | 0 mm | - | 269 W/m² | - |
| 1777653659 | 13.89° C | 70% | 1007.7 hPa | 0 mm | - | 335 W/m² | - |
| 1777653355 | 13.89° C | 69% | 1007.9 hPa | 0 mm | - | 275 W/m² | - |
| 1777653052 | 13.89° C | 68% | 1007.8 hPa | 0 mm | - | 285 W/m² | - |
| 1777652748 | 15° C | 66% | 1007.9 hPa | 0 mm | - | 216 W/m² | - |
| 1777652445 | 15° C | 70% | 1007.9 hPa | 0 mm | - | 856 W/m² | - |
| 1777652143 | 14.44° C | 70% | 1007.7 hPa | 0 mm | - | 903 W/m² | - |
| 1777651839 | 13.89° C | 71% | 1008 hPa | 0 mm | - | 569 W/m² | - |
| 1777651536 | 13.89° C | 72% | 1007.7 hPa | 0 mm | - | 225 W/m² | - |
| 1777651233 | 13.89° C | 70% | 1008.1 hPa | 0 mm | - | 242 W/m² | - |
| 1777650929 | 14.44° C | 72% | 1008.1 hPa | 0 mm | - | 647 W/m² | - |
| 1777650627 | 15° C | 69% | 1008.1 hPa | 0 mm | - | 770 W/m² | - |
| 1777650324 | 13.89° C | 72% | 1008.1 hPa | 0 mm | - | 750 W/m² | - |
| 1777650021 | 13.89° C | 73% | 1008.2 hPa | 0 mm | - | 737 W/m² | - |
| 1777649719 | 13.89° C | 75% | 1008 hPa | 0 mm | - | 752 W/m² | - |
| 1777649414 | 13.89° C | 75% | 1008.1 hPa | 0 mm | - | 773 W/m² | - |
| 1777649112 | 14.44° C | 73% | 1008 hPa | 0 mm | - | 731 W/m² | - |
| 1777648809 | 13.89° C | 75% | 1008.3 hPa | 0 mm | - | 744 W/m² | - |
| 1777648506 | 13.89° C | 74% | 1008.2 hPa | 0 mm | - | 714 W/m² | - |
| 1777648203 | 13.33° C | 77% | 1008.2 hPa | 0 mm | - | 540 W/m² | - |
* Rain latest hour (hover to see other rain measurements)
** Current wind speed in m/s (hover to see current wind gust speed)